Date,TemperatureHighF,TemperatureAvgF,TemperatureLowF,DewpointHighF,DewpointAvgF,DewpointLowF,HumidityHigh,HumidityAvg,HumidityLow,PressureMaxIn,PressureMinIn,WindSpeedMaxMPH,WindSpeedAvgMPH,GustSpeedMaxMPH,PrecipitationSumIn
2012-1-1,59,49,16,26,20,9,75,35,23,0.00,40.00,3,2,7,0.00
2012-1-2,58,50,19,16,14,12,87,24,16,0.00,40.00,11,6,26,0.00
2012-1-3,62,47,27,21,15,7,70,29,11,0.00,40.00,8,4,17,0.00
2012-1-4,63,49,21,26,21,15,85,38,15,0.00,40.00,5,3,11,0.00
2012-1-5,59,41,18,28,23,13,84,53,25,0.00,40.00,6,3,16,0.00
2012-1-6,55,36,13,19,9,-19,87,39,4,0.00,40.00,6,2,17,0.00
2012-1-7,42,33,15,19,8,3,67,36,19,0.00,40.00,7,4,21,0.00
2012-1-8,51,37,17,14,9,6,67,34,17,0.00,40.00,4,2,9,0.00
2012-1-9,57,43,14,23,19,10,89,44,25,0.00,40.00,3,2,7,0.00
2012-1-10,55,42,13,24,18,10,91,44,22,0.00,40.00,4,2,10,0.00
2012-1-11,49,38,8,17,14,4,85,43,25,0.00,40.00,4,2,9,0.00
2012-1-12,49,38,9,20,17,5,88,46,31,0.00,40.00,4,2,11,0.00
2012-1-13,55,43,8,23,14,4,84,34,16,0.00,40.00,4,2,9,0.00
2012-1-14,56,43,14,17,4,-5,86,24,8,0.00,40.00,6,4,16,0.00
2012-1-15,45,37,27,20,4,-5,75,27,15,0.00,40.00,12,8,32,0.00
2012-1-16,33,23,9,20,6,-3,81,52,26,0.00,40.00,11,4,29,0.00
2012-1-17,40,28,16,7,-8,-37,59,24,3,0.00,40.00,9,6,26,0.00
2012-1-18,45,38,32,-1,-12,-37,21,12,3,0.00,40.00,9,7,26,0.00
2012-1-19,45,38,32,34,9,-12,96,43,10,0.00,40.00,15,8,41,0.15
2012-1-20,43,39,36,40,37,34,96,92,86,0.00,40.00,11,6,38,3.32
2012-1-21,41,28,17,38,24,14,95,84,70,0.00,40.00,8,6,39,2.75
2012-1-22,36,28,17,31,20,6,95,74,28,0.00,40.00,12,6,38,0.07
2012-1-23,41,34,27,35,32,26,97,92,78,0.00,40.00,4,1,10,0.20
2012-1-24,49,29,20,41,26,17,97,91,71,0.00,40.00,3,1,5,0.97
2012-1-25,58,36,23,41,32,22,97,86,54,0.00,40.00,3,1,8,0.01
2012-1-26,45,38,26,40,35,25,98,89,78,0.00,40.00,6,4,16,0.03
2012-1-27,45,36,20,31,22,18,96,63,36,0.00,40.00,4,2,11,0.01
2012-1-28,53,40,7,26,17,3,87,46,20,0.00,40.00,3,2,7,0.00
2012-1-29,56,40,12,24,16,7,86,42,14,0.00,40.00,6,3,15,0.01
2012-1-30,58,39,27,28,20,9,90,50,21,0.00,40.00,4,3,14,0.01
2012-1-31,53,37,23,31,27,19,94,68,28,0.00,40.00,7,4,17,0.00
2012-2-1,45,35,20,28,25,18,93,68,45,0.00,40.00,9,5,20,0.16
2012-2-2,46,39,18,20,7,-6,90,30,11,0.00,40.00,5,3,12,0.00
2012-2-3,45,37,8,16,12,4,85,39,26,0.00,40.00,4,2,8,0.00
2012-2-4,45,36,7,17,15,3,90,47,29,0.00,40.00,4,2,9,0.00
2012-2-5,49,39,13,19,15,10,89,43,25,0.00,40.00,4,2,8,0.00
2012-2-6,50,37,5,19,14,0,87,43,23,0.00,40.00,4,2,7,0.00
2012-2-7,44,34,23,32,27,19,97,78,48,0.00,40.00,3,1,7,0.01
2012-2-8,55,37,20,31,23,14,97,68,19,0.00,40.00,4,1,9,0.01
2012-2-9,60,47,19,29,27,17,91,50,22,0.00,40.00,4,2,11,0.01
2012-2-10,53,44,28,26,22,18,83,42,25,0.00,40.00,13,8,35,0.01
2012-2-11,48,37,28,31,28,25,94,71,46,0.00,40.00,11,2,27,0.00
2012-2-12,49,32,21,27,23,17,95,74,28,0.00,40.00,7,3,19,0.00
2012-2-13,37,29,22,27,22,16,94,79,52,0.00,40.00,6,3,19,0.28
2012-2-14,47,33,19,27,23,17,93,70,38,0.00,40.00,9,4,22,0.04
2012-2-15,32,25,18,23,16,12,90,70,50,0.00,40.00,9,4,25,0.28
2012-2-16,47,36,9,18,11,5,87,40,19,0.00,40.00,3,2,9,0.03
2012-2-17,58,39,11,27,22,8,88,55,18,0.00,40.00,5,3,11,0.01
2012-2-18,45,35,24,28,23,18,88,63,36,0.00,40.00,8,4,25,0.00
2012-2-19,45,30,17,22,14,-1,78,56,15,0.00,40.00,6,3,14,0.00
2012-2-20,46,35,23,27,22,15,94,63,37,0.00,40.00,8,3,17,0.00
2012-2-21,55,37,22,33,27,20,94,70,41,0.00,40.00,4,2,13,0.00
2012-2-22,63,49,26,31,23,17,91,44,17,0.00,40.00,4,2,10,0.00
2012-2-23,56,48,22,28,15,9,93,32,16,0.00,40.00,6,4,13,0.00
2012-2-24,64,49,40,28,24,12,52,38,20,0.00,40.00,9,5,21,0.00
2012-2-25,49,41,24,18,3,-12,60,23,8,0.00,40.00,9,5,25,0.00
2012-2-26,45,33,13,18,8,-18,84,39,6,0.00,40.00,7,4,22,0.00
2012-2-27,36,27,19,26,21,14,91,79,52,0.00,40.00,6,2,12,0.24
2012-2-28,36,25,14,20,16,10,91,72,49,0.00,40.00,13,5,35,0.22
2012-2-29,31,26,23,29,24,19,94,89,75,0.00,40.00,12,8,39,0.03
2012-3-1,31,25,22,25,21,16,92,83,74,0.00,40.00,15,6,38,0.17
2012-3-2,49,34,1,19,12,-4,82,47,19,0.00,40.00,4,2,10,0.21
2012-3-3,58,46,21,25,21,11,93,42,18,0.00,40.00,3,2,8,0.00
2012-3-4,63,46,19,29,22,17,92,47,18,0.00,40.00,5,2,11,0.00
2012-3-5,59,48,22,20,9,3,90,22,11,0.00,40.00,15,8,35,0.00
2012-3-6,39,26,15,28,16,0,93,66,35,0.00,40.00,9,6,31,0.00
2012-3-7,42,25,9,14,2,-4,85,40,18,0.00,40.00,7,5,22,0.28
2012-3-8,58,40,6,19,10,1,87,40,13,0.00,40.00,4,2,8,0.28
2012-3-9,63,44,12,24,18,8,90,44,15,0.00,40.00,6,3,14,0.00
2012-3-10,59,45,17,21,11,-100,90,32,10,0.00,40.00,7,5,25,0.00
2012-3-11,41,37,33,29,23,4,77,59,24,0.00,40.00,13,9,32,0.00
2012-3-12,49,38,32,25,22,17,71,52,33,0.00,40.00,9,7,32,0.00
2012-3-13,39,35,33,31,28,22,89,74,56,0.00,40.00,15,9,37,0.19
2012-3-14,41,37,34,36,33,31,92,87,81,0.00,40.00,7,5,25,1.13
2012-3-15,42,40,37,39,36,34,91,87,78,0.00,40.00,11,5,28,0.84
2012-3-16,40,36,32,34,33,31,97,89,75,0.00,40.00,13,6,29,2.28
2012-3-17,49,28,22,31,24,18,97,84,49,0.00,40.00,4,1,12,0.49
2012-3-18,28,23,18,20,18,14,89,81,69,0.00,40.00,7,4,18,0.06
2012-3-19,42,22,8,25,15,3,89,75,33,0.00,40.00,4,2,8,0.46
2012-3-20,53,38,27,39,32,-100,95,82,52,0.00,40.00,9,4,18,0.04
2012-3-21,56,40,30,35,32,29,96,78,41,0.00,40.00,7,4,15,0.01
2012-3-22,55,36,39,31,-24,-100,70,31,23,0.00,40.00,8,-93,18,0.00
2012-3-23,50,38,28,32,18,-100,91,52,19,0.00,40.00,9,6,27,0.17
2012-3-24,52,44,38,17,6,-4,41,22,15,0.00,40.00,12,7,31,0.03
2012-3-25,45,36,28,28,20,12,89,55,32,0.00,40.00,8,4,21,0.08
2012-3-26,39,31,26,25,22,15,91,69,47,0.00,40.00,8,5,20,0.18
2012-3-27,51,36,31,30,20,11,93,55,25,0.00,40.00,10,7,27,0.02
2012-3-28,43,36,32,33,31,29,94,84,66,0.00,40.00,9,5,24,0.63
2012-3-29,53,41,34,32,26,19,77,58,34,0.00,40.00,8,6,18,0.04
2012-3-30,57,45,36,39,35,27,89,68,48,0.00,40.00,7,5,18,0.06
2012-3-31,44,35,24,35,26,19,90,72,44,0.00,40.00,13,7,41,0.14
2012-4-1,49,31,21,25,20,12,93,69,24,0.00,40.00,14,4,38,0.30
2012-4-2,54,41,12,26,21,8,93,49,28,0.00,40.00,5,2,11,0.09
2012-4-3,60,43,22,35,28,16,94,59,19,0.00,40.00,10,4,27,0.00
2012-4-4,40,32,24,28,16,8,94,52,37,0.00,40.00,13,8,42,0.20
2012-4-5,39,26,16,21,12,7,84,57,28,0.00,40.00,6,3,17,0.03
2012-4-6,47,27,10,19,10,0,89,56,15,0.00,40.00,6,2,16,0.04
2012-4-7,57,43,15,19,8,-10,91,34,6,0.00,40.00,8,4,22,0.04
2012-4-8,60,47,17,23,12,-4,88,34,8,0.00,40.00,8,4,24,0.00
2012-4-9,61,48,23,22,15,-1,84,32,9,0.00,40.00,11,5,22,0.00
2012-4-10,57,45,34,28,15,1,61,33,12,0.00,40.00,10,5,26,0.00
2012-4-11,40,33,27,31,26,15,94,76,35,0.00,40.00,11,5,27,0.23
2012-4-12,44,32,27,27,23,18,94,72,44,0.00,40.00,11,6,27,0.24
2012-4-13,41,30,24,27,24,18,92,77,45,0.00,40.00,6,4,16,0.60
2012-4-14,48,33,20,31,24,17,95,73,49,0.00,40.00,5,2,12,0.01
2012-4-15,58,39,21,33,28,19,95,70,22,0.00,40.00,6,2,14,0.01
2012-4-16,57,43,25,36,31,24,95,67,41,0.00,40.00,7,3,18,0.00
2012-4-17,59,44,27,37,32,25,95,66,29,0.00,40.00,8,4,22,0.00
2012-4-18,56,47,41,37,32,24,76,57,36,0.00,40.00,7,4,17,0.00
2012-4-19,66,52,36,43,37,34,95,61,36,0.00,40.00,6,3,15,0.00
2012-4-20,73,58,29,46,42,28,96,59,30,0.00,40.00,5,3,13,0.00
2012-4-21,76,58,30,49,39,29,96,58,21,0.00,40.00,6,3,14,0.00
2012-4-22,77,59,29,46,37,24,96,53,15,0.00,40.00,9,3,22,0.00
2012-4-23,73,55,31,46,40,30,96,62,31,0.00,40.00,6,3,19,0.04
2012-4-24,68,52,38,45,42,37,97,71,34,0.00,40.00,6,3,16,0.01
2012-4-25,55,46,32,42,36,25,96,70,38,0.00,40.00,8,4,23,0.09
2012-4-26,46,39,29,41,33,25,90,80,61,0.00,40.00,17,7,46,1.53
2012-4-27,57,40,22,36,25,19,94,60,24,0.00,40.00,5,2,10,0.08
2012-4-28,62,44,26,38,29,24,95,63,25,0.00,40.00,5,2,11,0.00
2012-4-29,66,54,26,43,34,24,95,51,28,0.00,40.00,5,3,13,0.00
2012-4-30,66,52,32,39,30,20,93,47,24,0.00,40.00,8,4,22,0.00
2012-5-1,63,50,35,39,28,9,78,47,21,0.00,40.00,7,4,22,0.00
2012-5-2,62,48,25,31,16,-4,75,32,9,0.00,40.00,8,5,17,0.00
2012-5-3,54,47,39,34,23,1,79,42,16,0.00,40.00,8,5,28,0.00
2012-5-4,55,45,27,30,25,18,90,48,23,0.00,40.00,10,6,31,0.00
2012-5-5,57,44,21,27,20,8,91,46,21,0.00,40.00,6,3,15,0.00
2012-5-6,62,51,21,24,17,14,82,29,16,0.00,40.00,6,4,15,0.00
2012-5-7,66,55,22,29,12,2,89,25,8,0.00,40.00,7,4,16,0.00
2012-5-8,73,59,25,41,22,15,84,30,12,0.00,40.00,6,3,13,0.00
2012-5-9,73,61,27,33,28,14,95,34,13,0.00,40.00,7,4,18,0.00
2012-5-10,68,57,40,37,26,12,83,31,19,0.00,40.00,6,4,16,0.00
2012-5-11,69,57,26,37,25,15,95,38,13,0.00,40.00,6,3,11,0.00
2012-5-12,73,58,28,37,24,5,96,39,7,0.00,40.00,5,3,13,0.00
2012-5-13,78,64,27,44,29,15,95,36,9,0.00,40.00,6,3,13,0.00
2012-5-14,70,57,35,40,35,27,96,49,20,0.00,40.00,8,4,17,0.00
2012-5-15,77,55,29,46,34,23,92,51,20,0.00,40.00,6,3,13,0.00
2012-5-16,76,62,36,44,35,21,97,43,17,0.00,40.00,9,4,22,0.00
2012-5-17,65,55,41,34,18,5,59,27,11,0.00,40.00,11,6,24,0.00
2012-5-18,66,51,36,40,29,17,90,51,15,0.00,40.00,6,3,11,0.00
2012-5-19,71,56,29,37,32,28,96,46,22,0.00,40.00,6,3,13,0.00
2012-5-20,78,61,31,43,37,30,96,47,19,0.00,40.00,5,3,12,0.00
2012-5-21,73,60,42,38,31,18,86,35,21,0.00,40.00,8,5,23,0.00
2012-5-22,68,57,43,33,27,15,56,34,14,0.00,40.00,10,6,25,0.00
2012-5-23,63,52,37,35,30,23,80,47,22,0.00,40.00,8,5,19,0.00
2012-5-24,62,46,26,31,22,4,95,48,10,0.00,40.00,13,6,25,0.00
2012-5-25,41,35,32,31,28,23,94,76,56,0.00,40.00,7,4,18,0.14
2012-5-26,46,38,32,35,32,29,94,80,55,0.00,40.00,6,4,19,0.07
2012-5-27,58,44,27,39,32,26,95,66,36,0.00,40.00,8,3,15,0.01
2012-5-28,64,47,27,39,33,26,95,64,33,0.00,40.00,7,3,18,0.00
2012-5-29,70,54,28,44,36,27,95,56,27,0.00,40.00,7,3,15,0.00
2012-5-30,77,57,31,46,37,30,96,56,19,0.00,40.00,6,2,14,0.00
2012-5-31,81,66,35,48,38,29,97,45,16,0.00,40.00,6,3,13,0.00
2012-6-1,83,66,41,48,45,40,97,54,25,0.00,40.00,6,3,15,0.00
2012-6-2,77,63,42,47,39,31,86,46,21,0.00,40.00,8,5,20,0.00
2012-6-3,76,63,48,45,36,21,60,37,26,0.00,40.00,8,5,23,0.00
2012-6-4,57,46,33,44,37,27,93,74,59,0.00,40.00,10,5,25,0.92
2012-6-5,51,38,30,31,24,17,92,59,30,0.00,40.00,6,4,17,0.26
2012-6-6,62,47,25,37,27,19,94,53,19,0.00,40.00,5,3,12,0.02
2012-6-7,68,57,28,39,34,26,95,45,24,0.00,40.00,7,5,18,0.00
2012-6-8,65,53,41,38,32,20,88,49,19,0.00,40.00,8,5,26,0.00
2012-6-9,67,53,32,25,12,-5,56,22,9,0.00,40.00,7,5,16,0.00
2012-6-10,69,60,23,32,15,10,85,21,13,0.00,40.00,5,4,14,0.00
2012-6-11,75,64,27,40,31,19,93,34,17,0.00,40.00,6,4,17,0.00
2012-6-12,76,62,31,38,34,25,96,40,17,0.00,40.00,7,4,19,0.00
2012-6-13,78,65,37,48,38,31,93,43,20,0.00,40.00,6,3,12,0.00
2012-6-14,79,62,40,48,42,32,97,55,21,0.00,40.00,7,3,17,0.00
2012-6-15,81,63,38,46,38,29,97,51,15,0.00,40.00,6,3,13,0.00
2012-6-16,83,70,36,48,36,30,93,36,16,0.00,40.00,6,3,13,0.00
2012-6-17,84,73,39,49,44,38,96,40,21,0.00,40.00,9,5,20,0.00
2012-6-18,76,67,56,44,34,29,51,31,19,0.00,40.00,10,6,30,0.00
2012-6-19,75,65,48,38,25,11,53,26,11,0.00,40.00,7,5,20,0.00
2012-6-20,83,71,35,43,35,25,95,32,13,0.00,40.00,6,3,10,0.00
2012-6-21,78,66,39,42,31,20,96,32,15,0.00,40.00,12,6,37,0.00
2012-6-22,69,57,47,33,28,22,58,34,19,0.00,40.00,10,7,25,0.00
2012-6-23,59,52,46,38,35,31,65,55,39,0.00,40.00,11,7,31,0.00
2012-6-24,67,55,46,39,35,28,66,48,35,0.00,40.00,8,5,21,0.00
2012-6-25,65,54,45,36,30,20,61,40,26,0.00,40.00,12,8,40,0.00
2012-6-26,71,55,41,40,30,23,86,41,21,0.00,40.00,12,5,40,0.00
2012-6-27,75,59,31,41,37,28,96,50,22,0.00,40.00,9,4,19,0.00
2012-6-28,76,63,52,39,31,24,47,31,20,0.00,40.00,8,6,20,0.00
2012-6-29,76,62,35,43,35,25,87,40,17,0.00,40.00,7,4,16,0.00
2012-6-30,74,62,36,44,40,34,96,49,25,0.00,40.00,7,4,19,0.00
2012-7-1,77,62,36,50,43,35,95,56,25,0.00,40.00,6,3,15,0.00
2012-7-2,82,65,41,51,48,40,97,60,30,0.00,40.00,6,3,18,0.00
2012-7-3,80,64,41,48,45,40,96,56,32,0.00,40.00,6,3,15,0.00
2012-7-4,78,63,41,45,42,37,97,51,24,0.00,40.00,8,4,18,0.00
2012-7-5,77,64,48,44,39,32,75,43,22,0.00,40.00,7,4,22,0.00
2012-7-6,80,68,37,44,39,34,96,40,19,0.00,40.00,7,4,16,0.00
2012-7-7,85,69,36,42,34,27,92,34,14,0.00,40.00,6,3,12,0.00
2012-7-8,84,70,39,43,40,38,95,38,21,0.00,40.00,7,4,16,0.00
2012-7-9,86,69,39,42,38,27,96,38,12,0.00,40.00,6,3,15,0.00
2012-7-10,88,73,40,41,38,34,88,33,15,0.00,40.00,7,4,17,0.00
2012-7-11,88,74,42,49,40,35,91,34,16,0.00,40.00,6,3,17,0.00
2012-7-12,90,74,42,47,41,32,92,36,13,0.00,40.00,6,4,19,0.00
2012-7-13,84,71,43,45,40,37,85,37,20,0.00,40.00,7,5,23,0.00
2012-7-14,81,67,39,45,39,32,94,41,19,0.00,40.00,7,4,19,0.00
2012-7-15,80,67,36,42,35,26,96,37,17,0.00,40.00,6,3,17,0.00
2012-7-16,74,63,43,40,35,30,77,38,23,0.00,40.00,8,6,24,0.00
2012-7-17,72,60,40,41,36,32,74,42,25,0.00,40.00,8,6,20,0.00
2012-7-18,76,63,50,45,32,19,50,32,16,0.00,40.00,9,6,22,0.00
2012-7-19,70,64,59,44,34,16,56,34,16,0.00,40.00,9,6,25,0.00
2012-7-20,81,68,53,47,42,39,72,42,24,0.00,40.00,8,5,24,0.00
2012-7-21,86,70,40,45,40,26,96,42,12,0.00,40.00,9,3,21,0.00
2012-7-22,86,72,44,49,45,41,92,43,24,0.00,40.00,7,3,18,0.00
2012-7-23,71,61,52,61,56,48,97,86,56,0.00,40.00,4,1,9,0.56
2012-7-24,81,63,43,52,45,34,97,61,20,0.00,40.00,5,2,17,0.07
2012-7-25,81,67,34,44,37,26,96,40,14,0.00,40.00,7,4,15,0.00
2012-7-26,81,65,38,42,36,27,96,41,15,0.00,40.00,7,3,17,0.00
2012-7-27,79,67,37,42,37,25,93,39,16,0.00,40.00,6,4,14,0.00
2012-7-28,80,64,39,45,41,36,96,50,22,0.00,40.00,8,3,15,0.00
2012-7-29,84,66,37,44,41,31,96,46,15,0.00,40.00,6,3,18,0.00
2012-7-30,85,66,29,42,32,14,95,38,7,0.00,40.00,6,3,19,0.00
2012-7-31,86,67,32,41,31,18,93,36,8,0.00,40.00,6,3,17,0.00
2012-8-1,82,60,29,38,33,18,94,41,9,0.00,40.00,4,2,11,0.00
2012-8-2,88,78,57,35,28,8,42,19,5,0.00,40.00,7,4,17,0.00
2012-8-3,90,75,37,44,32,22,85,28,9,0.00,40.00,6,3,14,0.00
2012-8-4,90,69,44,54,43,26,88,46,10,0.00,40.00,8,3,22,0.08
2012-8-5,82,65,46,53,45,37,96,58,21,0.00,40.00,7,3,19,0.21
2012-8-6,83,70,42,44,35,31,95,33,16,0.00,40.00,8,4,24,0.00
2012-8-7,86,69,39,41,36,31,93,37,15,0.00,40.00,8,4,18,0.00
2012-8-8,87,74,44,46,41,38,87,36,18,0.00,40.00,7,4,17,0.00
2012-8-9,90,75,46,46,42,40,92,37,19,0.00,40.00,7,4,18,0.00
2012-8-10,88,75,46,48,38,32,92,32,15,0.00,40.00,7,4,21,0.00
2012-8-11,91,74,41,46,40,33,87,36,14,0.00,40.00,6,3,18,0.00
2012-8-12,88,74,46,49,43,36,90,39,16,0.00,40.00,6,3,14,0.00
2012-8-13,82,67,51,56,48,45,91,56,28,0.00,40.00,7,2,15,0.01
2012-8-14,83,66,44,56,49,43,97,60,28,0.00,40.00,5,2,17,0.08
2012-8-15,86,70,50,55,49,40,96,55,25,0.00,40.00,6,2,14,0.03
2012-8-16,86,70,41,47,42,39,96,45,19,0.00,40.00,8,3,21,0.00
2012-8-17,86,68,45,60,48,40,94,56,22,0.00,40.00,8,2,15,0.12
2012-8-18,78,66,55,55,50,42,96,62,33,0.00,40.00,5,2,10,0.12
2012-8-19,83,68,48,53,43,33,96,49,19,0.00,40.00,6,2,15,0.00
2012-8-20,84,69,38,43,35,28,94,37,13,0.00,40.00,7,4,17,0.00
2012-8-21,83,66,34,39,27,12,90,31,7,0.00,40.00,7,4,19,0.00
2012-8-22,82,64,45,41,33,24,74,37,14,0.00,40.00,6,3,15,0.00
2012-8-23,83,71,38,40,34,30,93,30,15,0.00,40.00,7,4,15,0.00
2012-8-24,84,66,41,40,38,36,87,40,20,0.00,40.00,6,3,17,0.00
2012-8-25,83,69,42,43,40,37,93,39,23,0.00,40.00,8,4,17,0.00
2012-8-26,77,65,42,41,36,25,84,37,20,0.00,40.00,8,5,19,0.00
2012-8-27,79,62,27,30,18,-5,92,28,4,0.00,40.00,8,4,20,0.00
2012-8-28,81,63,28,27,16,-4,57,21,4,0.00,40.00,10,4,23,0.00
2012-8-29,82,65,31,29,22,11,76,25,7,0.00,40.00,7,4,15,0.00
2012-8-30,83,68,36,33,28,21,68,25,12,0.00,40.00,7,4,19,0.00
2012-8-31,77,65,45,33,29,23,50,28,17,0.00,40.00,8,5,27,0.00
2012-9-1,76,61,27,39,25,14,86,33,11,0.00,40.00,6,3,13,0.00
2012-9-2,80,64,32,38,30,22,95,37,12,0.00,40.00,5,3,12,0.00
2012-9-3,82,66,33,35,32,24,93,35,12,0.00,40.00,7,3,16,0.00
2012-9-4,83,64,30,34,29,20,89,34,10,0.00,40.00,7,3,17,0.00
2012-9-5,76,59,36,51,44,30,88,58,30,0.00,40.00,6,3,17,0.03
2012-9-6,76,59,45,54,46,41,97,68,31,0.00,40.00,4,2,15,0.07
2012-9-7,80,66,40,48,44,39,96,51,25,0.00,40.00,6,2,11,0.00
2012-9-8,84,69,39,47,44,38,96,45,27,0.00,40.00,8,4,19,0.00
2012-9-9,81,69,51,45,42,40,74,40,27,0.00,40.00,8,5,19,0.00
2012-9-10,80,67,52,42,38,33,60,37,18,0.00,40.00,7,4,15,0.00
2012-9-11,79,66,36,42,39,34,94,42,22,0.00,40.00,5,3,16,0.00
2012-9-12,80,66,34,40,28,16,96,33,10,0.00,40.00,6,3,13,0.00
2012-9-13,83,65,30,37,28,22,76,31,11,0.00,40.00,5,2,12,0.00
2012-9-14,82,66,34,40,29,22,90,31,11,0.00,40.00,6,3,20,0.00
2012-9-15,79,67,35,37,31,29,82,31,16,0.00,40.00,8,4,19,0.00
2012-9-16,79,64,33,39,29,26,93,33,15,0.00,40.00,6,3,16,0.00
2012-9-17,81,64,32,33,28,21,92,33,11,0.00,40.00,8,3,21,0.00
2012-9-18,81,64,32,33,30,27,93,35,14,0.00,40.00,5,3,12,0.00
2012-9-19,81,65,32,35,32,29,90,34,16,0.00,40.00,6,3,11,0.00
2012-9-20,82,66,35,37,34,29,90,35,15,0.00,40.00,6,3,15,0.00
2012-9-21,82,64,34,36,33,29,87,38,15,0.00,40.00,7,3,17,0.00
2012-9-22,77,64,37,40,35,30,85,39,18,0.00,40.00,8,3,17,0.00
2012-9-23,71,60,35,38,36,33,95,44,25,0.00,40.00,8,5,24,0.00
2012-9-24,74,62,47,36,30,14,60,32,15,0.00,40.00,10,4,21,0.00
2012-9-25,72,61,28,36,31,26,94,38,19,0.00,40.00,5,3,13,0.00
2012-9-26,76,61,29,36,31,27,95,40,17,0.00,40.00,6,3,13,0.00
2012-9-27,79,63,30,34,31,28,94,36,17,0.00,40.00,5,2,12,0.00
2012-9-28,77,61,32,36,31,28,90,39,17,0.00,40.00,4,2,11,0.00
2012-9-29,80,61,31,38,32,24,94,41,13,0.00,40.00,5,2,12,0.00
2012-9-30,82,62,32,36,29,18,94,40,9,0.00,40.00,5,2,12,0.00
2012-10-1,84,63,30,33,26,18,83,34,9,0.00,40.00,5,2,13,0.00
2012-10-2,82,63,32,31,26,19,78,31,10,0.00,40.00,6,3,17,0.00
2012-10-3,79,61,29,31,25,21,82,34,12,0.00,40.00,6,3,15,0.00
2012-10-4,75,58,31,35,28,25,88,37,17,0.00,40.00,5,3,16,0.00
2012-10-5,70,54,34,40,30,23,76,43,19,0.00,40.00,6,4,15,0.00
2012-10-6,70,53,25,38,30,7,94,50,9,0.00,40.00,6,2,14,0.00
2012-10-7,70,55,26,41,30,20,95,49,17,0.00,40.00,5,3,11,0.00
2012-10-8,64,50,25,38,31,12,94,54,13,0.00,40.00,9,4,18,0.00
2012-10-9,63,49,24,36,31,22,94,56,26,0.00,40.00,5,3,12,0.00
2012-10-10,64,50,27,38,32,20,94,55,18,0.00,40.00,6,3,17,0.00
2012-10-11,59,46,29,42,35,28,95,70,44,0.00,40.00,6,2,16,0.04
2012-10-12,54,45,33,46,41,28,96,86,64,0.00,40.00,7,3,15,0.38
2012-10-13,66,48,26,39,29,24,95,58,24,0.00,40.00,4,2,9,0.01
2012-10-14,73,54,26,41,32,19,95,51,14,0.00,40.00,5,3,18,0.00
2012-10-15,73,55,34,37,30,19,81,44,14,0.00,40.00,5,2,18,0.00
2012-10-16,73,59,38,43,38,30,91,51,21,0.00,40.00,6,3,16,0.00
2012-10-17,73,56,27,36,31,24,94,45,16,0.00,40.00,4,2,9,0.00
2012-10-18,77,57,24,34,28,20,92,41,12,0.00,40.00,6,3,16,0.00
2012-10-19,73,59,33,37,27,18,75,34,13,0.00,40.00,6,4,16,0.00
2012-10-20,65,54,40,38,28,21,71,39,20,0.00,40.00,7,4,17,0.00
2012-10-21,54,46,42,29,13,-4,54,28,9,0.00,40.00,13,7,37,0.00
2012-10-22,43,33,30,32,27,14,93,80,31,0.00,40.00,10,6,25,0.30
2012-10-23,38,31,28,28,26,22,94,83,60,0.00,40.00,7,5,20,0.50
2012-10-24,35,31,28,29,26,21,90,80,68,0.00,40.00,9,5,24,0.27
2012-10-25,54,37,25,36,28,21,94,72,38,0.00,40.00,7,4,16,0.54
2012-10-26,63,41,15,35,27,12,94,65,30,0.00,40.00,3,1,6,0.07
2012-10-27,63,44,21,42,32,19,94,67,36,0.00,40.00,3,1,8,0.00
2012-10-28,71,47,22,40,30,20,94,62,22,0.00,40.00,3,1,10,0.00
2012-10-29,70,50,26,37,28,19,95,55,14,0.00,40.00,4,2,12,0.00
2012-10-30,68,51,24,36,28,15,94,49,14,0.00,40.00,8,3,15,0.00
2012-10-31,58,49,31,28,21,15,89,34,24,0.00,40.00,9,5,27,0.00
2012-11-1,47,41,29,39,31,16,95,73,29,0.00,40.00,10,5,26,0.55
2012-11-2,58,40,22,39,30,20,94,73,40,0.00,40.00,3,1,8,0.01
2012-11-3,61,44,23,39,27,21,94,59,27,0.00,40.00,4,2,9,0.00
2012-11-4,64,47,25,36,30,23,94,60,25,0.00,40.00,4,1,9,0.00
2012-11-5,68,48,25,41,32,23,94,61,27,0.00,40.00,3,1,8,0.00
2012-11-6,71,48,24,38,30,22,94,60,16,0.00,40.00,5,2,10,0.00
2012-11-7,64,49,26,35,28,23,94,49,23,0.00,40.00,7,4,24,0.01
2012-11-8,46,35,23,32,24,16,90,67,29,0.00,40.00,11,6,28,0.15
2012-11-9,30,24,18,20,17,13,86,75,64,0.00,40.00,5,3,16,0.26
2012-11-10,38,23,6,21,14,2,87,71,35,0.00,40.00,5,3,12,0.23
2012-11-11,51,27,-1,27,15,-7,93,68,21,0.00,40.00,3,1,6,0.09
2012-11-12,54,35,15,32,23,12,93,67,30,0.00,40.00,5,2,14,0.01
2012-11-13,57,39,19,33,27,16,93,68,37,0.00,40.00,5,2,10,0.01
2012-11-14,59,39,22,31,22,11,93,62,15,0.00,40.00,4,1,11,0.00
2012-11-15,58,43,18,31,20,15,90,45,24,0.00,40.00,6,2,15,0.00
2012-11-16,45,38,34,35,31,16,95,76,38,0.00,40.00,5,2,15,0.07
2012-11-17,44,39,33,38,34,30,95,84,70,0.00,40.00,9,6,29,1.07
2012-11-18,40,35,33,33,32,28,93,86,73,0.00,40.00,8,6,23,1.35
2012-11-19,46,40,36,35,31,29,81,72,56,0.00,40.00,7,5,20,0.04
2012-11-20,48,43,38,29,24,20,71,48,40,0.00,40.00,13,9,33,0.00
2012-11-21,45,39,27,39,33,25,93,81,66,0.00,40.00,12,7,33,0.63
2012-11-22,54,36,22,32,25,20,93,71,30,0.00,40.00,3,1,10,0.02
2012-11-23,60,40,20,36,29,17,94,69,36,0.00,40.00,3,1,7,0.01
2012-11-24,62,41,21,34,26,18,93,64,19,0.00,40.00,4,1,10,0.01
2012-11-25,58,39,21,29,24,19,92,60,24,0.00,40.00,3,1,6,0.00
2012-11-26,22,18,15,20,16,11,91,88,85,0.00,40.00,0,0,2,0.00
2012-11-27,51,42,19,32,20,15,90,46,28,0.00,40.00,6,3,17,0.00
2012-11-28,47,41,36,35,27,15,90,63,32,0.00,40.00,9,7,28,1.11
2012-11-29,46,42,39,35,29,18,83,62,33,0.00,40.00,12,10,32,0.13
2012-11-30,40,38,35,36,34,32,91,86,75,0.00,40.00,11,8,31,4.13
2012-12-1,45,41,37,40,35,30,87,81,67,0.00,40.00,14,9,40,0.58
2012-12-2,43,38,29,38,33,25,92,82,66,0.00,40.00,12,7,41,3.15
2012-12-3,50,41,36,36,30,14,88,67,31,0.00,40.00,7,5,17,0.06
2012-12-4,49,44,37,34,21,5,88,43,19,0.00,40.00,10,6,32,0.10
2012-12-5,48,42,32,45,39,29,95,89,56,0.00,40.00,10,4,32,1.75
2012-12-6,51,33,25,36,26,-100,95,84,48,0.00,40.00,6,1,14,0.21
2012-12-7,53,32,21,33,21,3,92,71,13,0.00,40.00,4,1,10,0.01
2012-12-8,48,34,18,23,20,15,91,62,31,0.00,40.00,4,1,8,0.01
2012-12-9,48,35,21,30,24,19,92,68,39,0.00,40.00,5,2,12,0.00
2012-12-10,54,44,24,30,23,17,92,49,23,0.00,40.00,3,2,7,0.00
2012-12-11,49,38,19,25,21,15,91,51,25,0.00,40.00,9,6,23,0.00
2012-12-12,34,27,12,29,23,8,93,86,61,0.00,40.00,8,3,21,0.00
2012-12-13,36,22,-2,23,13,-8,86,69,51,0.00,40.00,3,1,6,0.43
2012-12-14,31,21,-3,20,14,-9,88,76,50,0.00,40.00,4,2,11,0.04
2012-12-15,33,25,-3,24,16,-9,86,70,51,0.00,40.00,7,5,20,0.06
2012-12-16,39,32,28,32,27,23,88,79,59,0.00,40.00,9,6,24,0.37
2012-12-17,38,33,29,32,30,22,92,86,74,0.00,40.00,8,5,30,1.01
2012-12-18,31,22,6,25,15,-3,89,76,35,0.00,40.00,5,2,13,0.09
2012-12-19,40,23,-7,20,11,-14,83,64,27,0.00,40.00,5,2,13,0.31
2012-12-20,41,35,29,12,9,2,49,34,24,0.00,40.00,12,8,33,0.04
2012-12-21,40,35,27,28,12,2,87,44,20,0.00,40.00,9,7,26,0.01
2012-12-22,34,29,26,30,26,23,94,90,80,0.00,40.00,10,6,40,0.01
2012-12-23,32,30,27,31,27,23,95,90,85,0.00,40.00,10,7,27,0.00
2012-12-24,40,27,16,28,22,13,91,82,59,0.00,40.00,7,3,19,0.62
2012-12-25,36,28,14,31,21,10,95,77,46,0.00,40.00,9,4,30,0.20
2012-12-26,29,26,16,27,22,13,93,87,82,0.00,40.00,7,4,19,0.00
2012-12-27,32,21,0,23,16,-11,88,79,59,0.00,40.00,3,1,8,0.53
2012-12-28,35,20,-8,20,12,-15,88,70,53,0.00,40.00,5,2,13,0.06
2012-12-29,36,23,17,24,17,14,90,78,53,0.00,40.00,3,1,7,0.00
2012-12-30,31,20,-3,17,12,-12,87,73,49,0.00,40.00,5,2,10,0.07
2012-12-31,43,20,-11,20,9,-19,87,65,29,0.00,40.00,4,1,7,0.01
2013-1-1,42,17,-1,18,4,-7,82,61,21,0.00,40.00,4,2,13,0.00